createdAt,value
2018-12-19T00:00:02.417Z,48.30
2018-12-19T00:02:29.527Z,47.70
2018-12-19T00:04:56.475Z,47.70
2018-12-19T00:07:23.424Z,47.50
2018-12-19T00:09:50.417Z,47.40
2018-12-19T00:12:17.421Z,47.40
2018-12-19T00:14:44.332Z,47.40
2018-12-19T00:17:11.403Z,47.40
2018-12-19T00:19:38.362Z,47.40
2018-12-19T00:22:05.313Z,47.40
2018-12-19T00:24:32.229Z,47.40
2018-12-19T00:26:59.154Z,47.40
2018-12-19T00:29:26.068Z,47.30
2018-12-19T00:31:52.996Z,47.50
2018-12-19T00:34:19.917Z,47.80
2018-12-19T00:36:46.841Z,47.60
2018-12-19T00:39:13.756Z,47.50
2018-12-19T00:41:40.768Z,47.40
2018-12-19T00:44:07.685Z,47.40
2018-12-19T00:46:34.601Z,47.40
2018-12-19T00:49:01.620Z,47.30
2018-12-19T00:51:28.536Z,47.20
2018-12-19T00:53:55.465Z,47.30
2018-12-19T00:56:22.386Z,47.20
2018-12-19T00:58:49.309Z,47.20
2018-12-19T01:01:16.232Z,47.20
2018-12-19T01:03:43.172Z,47.70
2018-12-19T01:06:10.329Z,47.30
2018-12-19T01:08:37.273Z,47.40
2018-12-19T01:11:04.190Z,47.30
2018-12-19T01:13:31.117Z,47.20
2018-12-19T01:15:58.112Z,47.10
2018-12-19T01:18:25.063Z,47.00
2018-12-19T01:20:52.148Z,47.00
2018-12-19T01:23:19.165Z,46.80
2018-12-19T01:25:46.163Z,46.70
2018-12-19T01:28:13.224Z,46.70
2018-12-19T01:30:40.298Z,46.70
2018-12-19T01:33:07.249Z,46.80
2018-12-19T01:35:34.160Z,46.80
2018-12-19T01:38:01.134Z,47.00
2018-12-19T01:40:28.462Z,47.20
2018-12-19T01:42:55.438Z,47.20
2018-12-19T01:45:22.364Z,47.20
2018-12-19T01:47:49.618Z,47.20
2018-12-19T01:50:16.556Z,47.20
2018-12-19T01:52:43.485Z,47.20
2018-12-19T01:55:10.430Z,47.30
2018-12-19T01:57:37.425Z,47.20
2018-12-19T02:00:04.375Z,47.30
2018-12-19T02:02:31.305Z,47.20
2018-12-19T02:04:58.265Z,47.20
2018-12-19T02:07:25.184Z,47.20
2018-12-19T02:09:52.168Z,47.20
2018-12-19T02:12:19.212Z,47.10
2018-12-19T02:14:46.134Z,47.20
2018-12-19T02:17:13.091Z,47.30
2018-12-19T02:19:40.016Z,47.40
2018-12-19T02:22:06.945Z,47.30
2018-12-19T02:24:33.868Z,47.20
2018-12-19T02:27:00.869Z,47.20
2018-12-19T02:29:27.915Z,47.20
2018-12-19T02:31:54.856Z,47.20
2018-12-19T02:34:21.810Z,47.00
2018-12-19T02:36:48.776Z,47.00
2018-12-19T02:39:15.771Z,47.00
2018-12-19T02:41:42.789Z,46.90
2018-12-19T02:44:09.725Z,47.00
2018-12-19T02:46:36.651Z,46.90
2018-12-19T02:49:03.631Z,46.90
2018-12-19T02:51:30.651Z,47.00
2018-12-19T02:53:57.613Z,47.10
2018-12-19T02:56:24.533Z,47.00
2018-12-19T02:58:51.445Z,46.90
2018-12-19T03:01:18.664Z,46.70
2018-12-19T03:03:45.700Z,46.70
2018-12-19T03:06:12.771Z,46.70
2018-12-19T03:08:39.805Z,46.70
2018-12-19T03:11:06.736Z,46.70
2018-12-19T03:13:33.712Z,46.70
2018-12-19T03:16:00.623Z,46.80
2018-12-19T03:18:27.581Z,46.80
2018-12-19T03:20:54.530Z,46.70
2018-12-19T03:23:21.465Z,46.90
2018-12-19T03:25:48.424Z,47.00
2018-12-19T03:28:15.349Z,47.00
2018-12-19T03:30:42.288Z,47.00
2018-12-19T03:33:09.216Z,46.90
2018-12-19T03:35:36.210Z,46.90
2018-12-19T03:38:03.149Z,46.90
2018-12-19T03:40:30.064Z,47.00
2018-12-19T03:42:56.991Z,46.90
2018-12-19T03:45:24.001Z,47.00
2018-12-19T03:47:51.028Z,47.10
2018-12-19T03:50:17.964Z,47.00
2018-12-19T03:52:44.891Z,47.00
2018-12-19T03:55:11.803Z,47.10
2018-12-19T03:57:38.756Z,47.20
2018-12-19T04:00:06.651Z,47.10
2018-12-19T04:02:33.620Z,47.00
2018-12-19T04:05:00.541Z,46.90
2018-12-19T04:07:27.512Z,46.90
2018-12-19T04:09:58.036Z,47.10
2018-12-19T04:12:23.361Z,47.00
2018-12-19T04:14:50.281Z,46.90
2018-12-19T04:17:17.218Z,47.00
2018-12-19T04:19:44.135Z,47.00
2018-12-19T04:22:11.073Z,47.00
2018-12-19T04:24:38.004Z,46.90
2018-12-19T04:27:04.941Z,46.90
2018-12-19T04:29:32.209Z,47.40
2018-12-19T04:31:59.243Z,46.90
2018-12-19T04:34:26.172Z,47.30
2018-12-19T04:36:54.469Z,47.10
2018-12-19T04:39:21.556Z,47.20
2018-12-19T04:41:48.544Z,47.20
2018-12-19T04:44:15.501Z,47.00
2018-12-19T04:46:42.445Z,47.00
2018-12-19T04:49:09.392Z,46.90
2018-12-19T04:51:36.342Z,46.80
2018-12-19T04:54:03.262Z,46.90
2018-12-19T04:56:30.215Z,46.90
2018-12-19T04:58:57.169Z,47.00
2018-12-19T05:01:24.065Z,47.00
2018-12-19T05:03:51.065Z,47.10
2018-12-19T05:06:17.988Z,47.10
2018-12-19T05:08:44.949Z,47.20
2018-12-19T05:11:11.894Z,47.10
2018-12-19T05:13:38.835Z,47.00
2018-12-19T05:16:05.757Z,46.90
2018-12-19T05:18:32.695Z,46.90
2018-12-19T05:20:59.689Z,46.90
2018-12-19T05:23:26.639Z,46.90
2018-12-19T05:25:53.575Z,46.90
2018-12-19T05:28:20.512Z,46.80
2018-12-19T05:30:47.431Z,46.90
2018-12-19T05:33:14.418Z,46.80
2018-12-19T05:35:41.359Z,46.80
2018-12-19T05:38:08.308Z,46.80
2018-12-19T05:40:35.244Z,47.10
2018-12-19T05:43:02.234Z,47.40
2018-12-19T05:45:29.243Z,47.20
2018-12-19T05:47:56.176Z,47.30
2018-12-19T05:50:23.536Z,47.20
2018-12-19T05:52:50.488Z,47.10
2018-12-19T05:55:17.443Z,47.10
2018-12-19T05:57:44.400Z,47.10
2018-12-19T06:00:11.353Z,47.10
2018-12-19T06:02:38.329Z,47.10
2018-12-19T06:05:05.318Z,47.20
2018-12-19T06:07:32.276Z,47.20
2018-12-19T06:09:59.199Z,47.10
2018-12-19T06:12:26.111Z,47.10
2018-12-19T06:14:53.082Z,47.70
2018-12-19T06:17:20.153Z,47.80
2018-12-19T06:19:47.203Z,47.60
2018-12-19T06:22:14.142Z,47.30
2018-12-19T06:24:41.060Z,47.40
2018-12-19T06:27:08.030Z,47.50
2018-12-19T06:29:34.980Z,47.50
2018-12-19T06:32:01.935Z,47.60
2018-12-19T06:34:28.877Z,47.50
2018-12-19T06:36:55.802Z,47.50
2018-12-19T06:39:22.773Z,47.40
2018-12-19T06:41:49.713Z,47.40
2018-12-19T06:44:16.689Z,47.60
2018-12-19T06:46:43.705Z,47.90
2018-12-19T06:49:10.649Z,47.90
2018-12-19T06:51:37.596Z,48.20
2018-12-19T06:54:04.547Z,48.20
2018-12-19T06:56:31.464Z,48.20
2018-12-19T06:58:58.432Z,48.20
2018-12-19T07:01:25.384Z,48.20
2018-12-19T07:03:52.312Z,48.20
2018-12-19T07:06:19.277Z,48.20
2018-12-19T07:08:46.207Z,48.20
2018-12-19T07:11:13.468Z,48.20
2018-12-19T07:13:40.409Z,48.20
2018-12-19T07:16:07.369Z,48.20
2018-12-19T07:18:34.312Z,48.20
2018-12-19T07:21:01.476Z,48.20
2018-12-19T07:23:28.403Z,48.20
2018-12-19T07:25:55.358Z,48.10
2018-12-19T07:28:22.273Z,48.20
2018-12-19T07:30:49.239Z,48.20
2018-12-19T07:33:16.213Z,48.10
2018-12-19T07:35:43.252Z,48.00
2018-12-19T07:38:10.176Z,48.00
2018-12-19T07:40:37.141Z,47.90
2018-12-19T07:43:04.075Z,47.90
2018-12-19T07:45:31.024Z,47.80
2018-12-19T07:47:57.977Z,47.80
2018-12-19T07:50:24.911Z,47.70
2018-12-19T07:52:51.972Z,47.70
2018-12-19T07:55:18.897Z,47.70
2018-12-19T07:57:45.862Z,47.70
2018-12-19T08:00:12.813Z,48.20
2018-12-19T08:02:39.854Z,48.20
2018-12-19T08:05:06.764Z,48.20
2018-12-19T08:07:33.758Z,48.00
2018-12-19T08:10:00.769Z,47.90
2018-12-19T08:12:27.725Z,47.90
2018-12-19T08:14:56.630Z,47.80
2018-12-19T08:17:23.685Z,47.70
2018-12-19T08:19:50.612Z,47.70
2018-12-19T08:22:17.590Z,47.70
2018-12-19T08:24:44.520Z,47.60
2018-12-19T08:27:11.455Z,47.70
2018-12-19T08:29:38.400Z,47.70
2018-12-19T08:32:05.332Z,48.10
2018-12-19T08:34:32.325Z,48.20
2018-12-19T08:36:59.255Z,48.00
2018-12-19T08:39:26.202Z,47.90
2018-12-19T08:41:53.159Z,47.70
2018-12-19T08:44:20.176Z,47.90
2018-12-19T08:46:47.151Z,48.20
2018-12-19T08:49:14.072Z,48.30
2018-12-19T08:51:41.026Z,48.80
2018-12-19T08:54:08.060Z,48.20
2018-12-19T08:56:34.976Z,48.50
2018-12-19T08:59:01.952Z,49.00
2018-12-19T09:01:28.871Z,49.00
2018-12-19T09:03:55.805Z,48.90
2018-12-19T09:06:22.742Z,48.60
2018-12-19T09:08:49.674Z,48.30
2018-12-19T09:11:16.684Z,48.30
2018-12-19T09:13:43.627Z,48.50
2018-12-19T09:16:10.557Z,48.50
2018-12-19T09:18:37.488Z,48.30
2018-12-19T09:21:04.466Z,48.20
2018-12-19T09:23:31.385Z,48.20
2018-12-19T09:25:58.458Z,48.20
2018-12-19T09:28:25.645Z,48.20
2018-12-19T09:30:52.589Z,48.10
2018-12-19T09:33:19.605Z,48.10
2018-12-19T09:35:46.559Z,48.00
2018-12-19T09:38:13.559Z,47.90
2018-12-19T09:40:40.460Z,47.90
2018-12-19T09:43:07.381Z,47.90
2018-12-19T09:45:34.325Z,48.30
2018-12-19T09:48:01.235Z,48.30
2018-12-19T09:50:28.220Z,48.20
2018-12-19T09:52:55.168Z,48.00
2018-12-19T09:55:22.119Z,47.90
2018-12-19T09:57:49.042Z,48.10
2018-12-19T10:00:21.780Z,48.00
2018-12-19T10:02:49.409Z,47.90
2018-12-19T10:05:16.560Z,47.90
2018-12-19T10:07:43.500Z,47.80
2018-12-19T10:10:10.445Z,47.90
2018-12-19T10:12:37.480Z,47.80
2018-12-19T10:15:04.627Z,47.70
2018-12-19T10:17:31.540Z,47.80
2018-12-19T10:19:58.532Z,48.30
2018-12-19T10:22:31.663Z,48.80
2018-12-19T10:25:04.833Z,48.60
2018-12-19T10:27:31.749Z,48.30
2018-12-19T10:29:58.709Z,48.10
2018-12-19T10:32:27.553Z,48.20
2018-12-19T10:34:54.541Z,48.80
2018-12-19T10:37:21.456Z,48.20
2018-12-19T10:39:48.536Z,48.20
2018-12-19T10:42:15.443Z,48.20
2018-12-19T10:44:42.374Z,48.20
2018-12-19T10:47:09.327Z,48.10
2018-12-19T10:49:36.320Z,48.30
2018-12-19T10:52:03.238Z,48.40
2018-12-19T10:54:30.160Z,48.60
2018-12-19T10:56:57.249Z,48.60
2018-12-19T10:59:24.250Z,48.60
2018-12-19T11:01:51.251Z,48.60
2018-12-19T11:04:18.159Z,48.70
2018-12-19T11:06:45.151Z,48.60
2018-12-19T11:09:12.088Z,48.40
2018-12-19T11:11:39.031Z,48.30
2018-12-19T11:14:05.986Z,48.10
2018-12-19T11:16:32.922Z,48.00
2018-12-19T11:18:59.872Z,47.90
2018-12-19T11:21:26.879Z,47.90
2018-12-19T11:23:53.848Z,47.80
2018-12-19T11:26:20.812Z,47.80
2018-12-19T11:28:47.756Z,47.80
2018-12-19T11:31:14.672Z,48.20
2018-12-19T11:33:41.595Z,47.90
2018-12-19T11:36:10.123Z,48.20
2018-12-19T11:38:37.222Z,48.20
2018-12-19T11:41:04.335Z,48.20
2018-12-19T11:43:31.251Z,48.20
2018-12-19T11:45:58.220Z,48.20
2018-12-19T11:48:25.173Z,48.20
2018-12-19T11:50:52.119Z,48.20
2018-12-19T11:53:19.041Z,48.10
2018-12-19T11:55:45.958Z,48.20
2018-12-19T11:58:12.895Z,48.20
2018-12-19T12:00:39.800Z,48.10
2018-12-19T12:03:06.986Z,48.20
2018-12-19T12:05:34.035Z,48.20
2018-12-19T12:08:01.045Z,48.20
2018-12-19T12:10:27.973Z,47.90
2018-12-19T12:12:54.892Z,47.90
2018-12-19T12:15:21.887Z,47.90
2018-12-19T12:17:48.809Z,48.00
2018-12-19T12:20:15.725Z,48.20
2018-12-19T12:22:42.638Z,48.00
2018-12-19T12:25:09.582Z,47.80
2018-12-19T12:27:36.524Z,47.70
2018-12-19T12:30:04.363Z,47.80
2018-12-19T12:32:31.336Z,47.80
2018-12-19T12:34:58.267Z,47.70
2018-12-19T12:37:25.476Z,47.70
2018-12-19T12:39:52.373Z,48.00
2018-12-19T12:42:19.297Z,48.20
2018-12-19T12:44:46.352Z,48.00
2018-12-19T12:47:13.801Z,47.80
2018-12-19T12:49:40.774Z,47.80
2018-12-19T12:52:07.689Z,47.70
2018-12-19T12:54:34.678Z,47.90
2018-12-19T12:57:01.596Z,47.80
2018-12-19T12:59:28.516Z,47.90
2018-12-19T13:01:55.503Z,47.80
2018-12-19T13:04:22.417Z,47.90
2018-12-19T13:06:49.337Z,48.00
2018-12-19T13:09:16.352Z,48.20
2018-12-19T13:11:43.372Z,48.20
2018-12-19T13:14:10.316Z,48.20
2018-12-19T13:16:37.276Z,48.10
2018-12-19T13:19:04.195Z,48.10
2018-12-19T13:21:31.450Z,48.00
2018-12-19T13:23:58.437Z,48.10
2018-12-19T13:26:25.480Z,48.10
2018-12-19T13:28:52.392Z,48.20
2018-12-19T13:31:19.311Z,48.10
2018-12-19T13:33:46.237Z,48.30
2018-12-19T13:36:13.265Z,48.20
2018-12-19T13:38:40.186Z,48.10
2018-12-19T13:41:07.164Z,48.10
2018-12-19T13:43:34.073Z,48.10
2018-12-19T13:46:01.039Z,48.20
2018-12-19T13:48:27.992Z,48.10
2018-12-19T13:50:54.938Z,48.40
2018-12-19T13:53:21.846Z,48.40
2018-12-19T13:55:48.761Z,48.40
2018-12-19T13:58:15.681Z,48.10
2018-12-19T14:00:42.630Z,48.30
2018-12-19T14:03:09.557Z,48.00
2018-12-19T14:05:36.480Z,48.10
2018-12-19T14:08:03.460Z,48.10
2018-12-19T14:10:31.103Z,47.90
2018-12-19T14:12:58.060Z,47.80
2018-12-19T14:15:25.001Z,47.90
2018-12-19T14:17:51.920Z,47.80
2018-12-19T14:20:18.901Z,47.80
2018-12-19T14:22:45.841Z,48.00
2018-12-19T14:25:12.762Z,48.10
2018-12-19T14:27:39.680Z,48.10
2018-12-19T14:30:07.493Z,48.10
2018-12-19T14:32:34.421Z,47.80
2018-12-19T14:35:01.381Z,47.90
2018-12-19T14:37:28.338Z,47.80
2018-12-19T14:39:55.275Z,47.70
2018-12-19T14:42:22.244Z,47.60
2018-12-19T14:44:49.168Z,47.70
2018-12-19T14:47:16.092Z,47.80
2018-12-19T14:49:43.005Z,47.90
2018-12-19T14:52:09.933Z,48.20
2018-12-19T14:54:36.856Z,48.10
2018-12-19T14:57:03.772Z,48.70
2018-12-19T14:59:30.748Z,48.30
2018-12-19T15:01:57.693Z,48.10
2018-12-19T15:04:24.613Z,48.20
2018-12-19T15:06:51.528Z,48.20
2018-12-19T15:09:18.541Z,48.10
2018-12-19T15:11:45.581Z,48.10
2018-12-19T15:14:12.496Z,48.10
2018-12-19T15:16:39.464Z,48.20
2018-12-19T15:19:06.421Z,48.10
2018-12-19T15:21:33.332Z,48.20
2018-12-19T15:24:00.248Z,48.10
2018-12-19T15:26:27.175Z,48.10
2018-12-19T15:28:54.201Z,48.30
2018-12-19T15:31:21.124Z,48.50
2018-12-19T15:33:48.048Z,48.40
2018-12-19T15:36:14.997Z,48.20
2018-12-19T15:38:42.046Z,48.10
2018-12-19T15:41:09.001Z,48.10
2018-12-19T15:43:35.940Z,48.10
2018-12-19T15:46:03.056Z,48.60
2018-12-19T15:48:30.081Z,48.50
2018-12-19T15:50:57.009Z,48.40
2018-12-19T15:53:23.964Z,48.40
2018-12-19T15:55:50.907Z,48.30
2018-12-19T15:58:17.836Z,48.50
2018-12-19T16:00:44.807Z,48.40
2018-12-19T16:03:11.725Z,48.10
2018-12-19T16:05:38.644Z,48.10
2018-12-19T16:08:05.580Z,48.10
2018-12-19T16:10:32.521Z,48.40
2018-12-19T16:12:59.529Z,48.60
2018-12-19T16:15:26.445Z,48.60
2018-12-19T16:17:53.369Z,48.30
2018-12-19T16:20:20.304Z,48.30
2018-12-19T16:22:47.225Z,48.10
2018-12-19T16:25:14.152Z,48.20
2018-12-19T16:27:41.104Z,48.10
2018-12-19T16:30:08.358Z,48.20
2018-12-19T16:32:35.281Z,48.20
2018-12-19T16:35:02.190Z,48.30
2018-12-19T16:37:29.100Z,48.20
2018-12-19T16:39:56.017Z,48.20
2018-12-19T16:42:23.075Z,48.40
2018-12-19T16:44:49.997Z,48.60
2018-12-19T16:47:16.925Z,48.40
2018-12-19T16:49:43.853Z,48.20
2018-12-19T16:52:10.805Z,48.20
2018-12-19T16:54:37.725Z,48.10
2018-12-19T16:57:04.631Z,48.10
2018-12-19T16:59:31.769Z,48.20
2018-12-19T17:01:58.751Z,48.10
2018-12-19T17:04:25.691Z,48.20
2018-12-19T17:06:52.647Z,48.20
2018-12-19T17:09:19.573Z,48.10
2018-12-19T17:11:46.532Z,48.30
2018-12-19T17:14:13.476Z,48.30
2018-12-19T17:16:40.528Z,48.60
2018-12-19T17:19:07.439Z,48.80
2018-12-19T17:21:34.357Z,48.60
2018-12-19T17:24:01.272Z,48.40
2018-12-19T17:26:28.183Z,48.50
2018-12-19T17:28:55.256Z,48.40
2018-12-19T17:31:22.178Z,48.60
2018-12-19T17:33:49.156Z,48.50
2018-12-19T17:36:16.101Z,48.40
2018-12-19T17:38:43.020Z,48.30
2018-12-19T17:41:09.942Z,48.50
2018-12-19T17:43:36.933Z,48.50
2018-12-19T17:46:03.877Z,48.10
2018-12-19T17:48:30.810Z,48.30
2018-12-19T17:50:57.725Z,48.50
2018-12-19T17:53:24.722Z,48.50
2018-12-19T17:55:51.669Z,48.60
2018-12-19T17:58:18.598Z,48.80
2018-12-19T18:00:45.521Z,48.80
2018-12-19T18:03:12.503Z,48.80
2018-12-19T18:05:39.417Z,49.00
2018-12-19T18:08:06.393Z,48.80
2018-12-19T18:10:33.295Z,48.60
2018-12-19T18:13:05.939Z,48.60
2018-12-19T18:15:29.172Z,48.60
2018-12-19T18:17:56.145Z,48.60
2018-12-19T18:20:23.179Z,48.50
2018-12-19T18:22:50.097Z,48.80
2018-12-19T18:25:17.021Z,48.80
2018-12-19T18:27:43.940Z,48.80
2018-12-19T18:30:10.852Z,49.00
2018-12-19T18:32:37.793Z,49.10
2018-12-19T18:35:05.284Z,49.20
2018-12-19T18:37:33.441Z,49.00
2018-12-19T18:40:00.657Z,48.80
2018-12-19T18:42:27.621Z,48.80
2018-12-19T18:44:54.573Z,49.00
2018-12-19T18:47:21.496Z,48.80
2018-12-19T18:49:48.466Z,48.40
2018-12-19T18:52:15.420Z,48.40
2018-12-19T18:54:42.341Z,49.00
2018-12-19T18:57:09.268Z,48.80
2018-12-19T18:59:36.292Z,48.60
2018-12-19T19:02:03.353Z,48.50
2018-12-19T19:04:30.374Z,48.90
2018-12-19T19:06:57.406Z,49.00
2018-12-19T19:09:24.439Z,49.00
2018-12-19T19:11:51.342Z,49.60
2018-12-19T19:14:18.330Z,48.60
2018-12-19T19:16:45.244Z,48.60
2018-12-19T19:19:12.212Z,48.50
2018-12-19T19:21:40.393Z,48.50
2018-12-19T19:24:07.451Z,48.50
2018-12-19T19:26:34.392Z,48.50
2018-12-19T19:29:01.394Z,48.50
2018-12-19T19:31:28.313Z,48.40
2018-12-19T19:33:55.256Z,48.50
2018-12-19T19:36:22.228Z,48.90
2018-12-19T19:38:49.193Z,48.90
2018-12-19T19:41:16.118Z,48.80
2018-12-19T19:43:43.922Z,48.80
2018-12-19T19:46:14.352Z,48.90
2018-12-19T19:48:41.997Z,49.00
2018-12-19T19:51:09.415Z,49.00
2018-12-19T19:53:36.333Z,49.00
2018-12-19T19:56:03.252Z,49.10
2018-12-19T19:58:30.377Z,49.10
2018-12-19T20:00:57.425Z,49.80
2018-12-19T20:03:24.387Z,49.10
2018-12-19T20:05:51.513Z,49.10
2018-12-19T20:08:18.497Z,49.20
2018-12-19T20:10:45.425Z,49.00
2018-12-19T20:13:12.357Z,49.40
2018-12-19T20:15:39.300Z,49.40
2018-12-19T20:18:06.214Z,49.60
2018-12-19T20:20:33.193Z,49.20
2018-12-19T20:23:00.141Z,49.10
2018-12-19T20:25:27.082Z,48.90
2018-12-19T20:27:54.005Z,49.00
2018-12-19T20:30:20.940Z,48.90
2018-12-19T20:32:47.868Z,49.00
2018-12-19T20:35:14.799Z,48.90
2018-12-19T20:37:41.735Z,48.90
2018-12-19T20:40:08.655Z,48.80
2018-12-19T20:42:35.580Z,48.90
2018-12-19T20:45:02.857Z,48.70
2018-12-19T20:47:29.779Z,48.30
2018-12-19T20:49:56.720Z,48.70
2018-12-19T20:52:23.655Z,48.80
2018-12-19T20:54:50.583Z,48.70
2018-12-19T20:57:17.614Z,48.40
2018-12-19T20:59:44.712Z,48.30
2018-12-19T21:02:11.775Z,48.90
2018-12-19T21:04:38.841Z,48.20
2018-12-19T21:07:05.869Z,48.20
2018-12-19T21:09:32.825Z,48.20
2018-12-19T21:11:59.755Z,48.20
2018-12-19T21:14:26.792Z,48.00
2018-12-19T21:17:00.759Z,47.90
2018-12-19T21:19:27.829Z,47.70
2018-12-19T21:21:54.873Z,47.60
2018-12-19T21:24:22.396Z,48.10
2018-12-19T21:26:50.284Z,48.20
2018-12-19T21:29:17.848Z,48.20
2018-12-19T21:31:44.879Z,48.00
2018-12-19T21:34:11.817Z,47.90
2018-12-19T21:36:39.638Z,48.00
2018-12-19T21:39:09.422Z,48.50
2018-12-19T21:41:36.537Z,47.80
2018-12-19T21:44:04.049Z,47.70
2018-12-19T21:46:31.053Z,47.70
2018-12-19T21:48:58.054Z,47.70
2018-12-19T21:51:25.006Z,47.70
2018-12-19T21:53:52.253Z,47.70
2018-12-19T21:56:19.272Z,47.70
2018-12-19T21:58:46.202Z,48.00
2018-12-19T22:01:13.147Z,47.90
2018-12-19T22:03:40.098Z,47.70
2018-12-19T22:06:07.132Z,47.70
2018-12-19T22:08:34.201Z,47.60
2018-12-19T22:11:01.191Z,48.10
2018-12-19T22:13:28.302Z,47.60
2018-12-19T22:15:55.230Z,47.60
2018-12-19T22:18:28.148Z,47.50
2018-12-19T22:20:55.125Z,47.60
2018-12-19T22:23:22.048Z,47.50
2018-12-19T22:25:49.048Z,47.50
2018-12-19T22:28:16.073Z,47.50
2018-12-19T22:30:43.097Z,47.50
2018-12-19T22:33:10.269Z,47.60
2018-12-19T22:35:37.375Z,47.50
2018-12-19T22:38:04.400Z,47.50
2018-12-19T22:40:31.973Z,47.60
2018-12-19T22:42:59.053Z,47.70
2018-12-19T22:45:26.032Z,47.70
2018-12-19T22:47:52.948Z,47.60
2018-12-19T22:50:20.549Z,47.50
2018-12-19T22:52:47.673Z,47.60
2018-12-19T22:55:14.642Z,47.40
2018-12-19T22:57:41.730Z,47.40
2018-12-19T23:00:12.078Z,47.40
2018-12-19T23:02:44.909Z,47.40
2018-12-19T23:05:11.952Z,47.40
2018-12-19T23:07:39.332Z,47.40
2018-12-19T23:10:09.028Z,48.20
2018-12-19T23:12:36.075Z,47.70
2018-12-19T23:15:04.077Z,47.70
2018-12-19T23:17:37.015Z,47.40
2018-12-19T23:20:05.092Z,47.40
2018-12-19T23:22:32.095Z,47.40
2018-12-19T23:24:59.150Z,47.40
2018-12-19T23:27:26.209Z,47.40
2018-12-19T23:29:53.223Z,48.20
2018-12-19T23:32:22.254Z,47.40
2018-12-19T23:34:49.320Z,47.30
2018-12-19T23:37:16.261Z,47.40
2018-12-19T23:39:43.358Z,47.30
2018-12-19T23:42:10.358Z,47.40
2018-12-19T23:44:37.313Z,47.50
2018-12-19T23:47:04.223Z,47.40
2018-12-19T23:49:31.327Z,47.20
2018-12-19T23:51:58.277Z,47.10
2018-12-19T23:54:29.090Z,47.20
2018-12-19T23:56:54.397Z,47.10
2018-12-19T23:59:21.526Z,47.20
